sensor_id;sensor_type;location;lat;lon;timestamp;pressure;altitude;pressure_sealevel;temperature;humidity
5679;BME280;2862;52.560;13.566;2023-02-03T00:07:31;101242.84;;;2.46;93.10
5679;BME280;2862;52.560;13.566;2023-02-03T00:17:37;101209.56;;;2.21;94.85
5679;BME280;2862;52.560;13.566;2023-02-03T00:27:39;101173.72;;;2.16;95.82
5679;BME280;2862;52.560;13.566;2023-02-03T00:37:49;101146.31;;;2.20;97.12
5679;BME280;2862;52.560;13.566;2023-02-03T00:47:54;101117.31;;;1.98;100.00
5679;BME280;2862;52.560;13.566;2023-02-03T00:57:59;101132.63;;;2.10;100.00
5679;BME280;2862;52.560;13.566;2023-02-03T01:08:04;101113.06;;;2.16;100.00
5679;BME280;2862;52.560;13.566;2023-02-03T01:18:09;101105.69;;;2.24;100.00
5679;BME280;2862;52.560;13.566;2023-02-03T01:28:12;101090.91;;;2.40;100.00
5679;BME280;2862;52.560;13.566;2023-02-03T01:38:17;101053.56;;;2.49;100.00
5679;BME280;2862;52.560;13.566;2023-02-03T01:48:20;101049.34;;;2.45;100.00
5679;BME280;2862;52.560;13.566;2023-02-03T01:58:28;101004.56;;;2.44;100.00
5679;BME280;2862;52.560;13.566;2023-02-03T02:08:32;100999.41;;;2.40;100.00
5679;BME280;2862;52.560;13.566;2023-02-03T02:19:06;100968.47;;;2.44;100.00
5679;BME280;2862;52.560;13.566;2023-02-03T02:29:48;100937.28;;;2.33;100.00
5679;BME280;2862;52.560;13.566;2023-02-03T02:40:06;100891.44;;;2.36;100.00
5679;BME280;2862;52.560;13.566;2023-02-03T02:50:16;100858.41;;;2.27;100.00
5679;BME280;2862;52.560;13.566;2023-02-03T03:00:23;100845.59;;;2.20;100.00
5679;BME280;2862;52.560;13.566;2023-02-03T03:10:29;100812.47;;;1.95;100.00
5679;BME280;2862;52.560;13.566;2023-02-03T03:20:35;100796.84;;;2.09;100.00
5679;BME280;2862;52.560;13.566;2023-02-03T03:30:41;100763.56;;;1.88;100.00
5679;BME280;2862;52.560;13.566;2023-02-03T03:40:49;100735.75;;;2.00;100.00
5679;BME280;2862;52.560;13.566;2023-02-03T03:50:56;100719.28;;;2.13;100.00
5679;BME280;2862;52.560;13.566;2023-02-03T04:01:02;100697.81;;;2.21;100.00
5679;BME280;2862;52.560;13.566;2023-02-03T04:11:08;100680.88;;;2.08;100.00
5679;BME280;2862;52.560;13.566;2023-02-03T04:21:12;100654.75;;;2.38;100.00
5679;BME280;2862;52.560;13.566;2023-02-03T04:31:15;100627.97;;;2.46;100.00
5679;BME280;2862;52.560;13.566;2023-02-03T04:41:19;100612.34;;;2.76;100.00
5679;BME280;2862;52.560;13.566;2023-02-03T04:51:22;100591.34;;;2.90;100.00
5679;BME280;2862;52.560;13.566;2023-02-03T05:01:27;100552.66;;;3.20;100.00
5679;BME280;2862;52.560;13.566;2023-02-03T05:11:30;100523.84;;;3.47;100.00
5679;BME280;2862;52.560;13.566;2023-02-03T05:21:34;100519.94;;;3.85;100.00
5679;BME280;2862;52.560;13.566;2023-02-03T05:31:37;100495.16;;;4.16;100.00
5679;BME280;2862;52.560;13.566;2023-02-03T05:41:42;100488.94;;;4.45;100.00
5679;BME280;2862;52.560;13.566;2023-02-03T05:51:58;100450.59;;;4.79;100.00
5679;BME280;2862;52.560;13.566;2023-02-03T06:02:10;100447.13;;;5.06;100.00
5679;BME280;2862;52.560;13.566;2023-02-03T06:12:13;100411.25;;;5.27;100.00
5679;BME280;2862;52.560;13.566;2023-02-03T06:22:18;100398.06;;;5.53;100.00
5679;BME280;2862;52.560;13.566;2023-02-03T06:32:21;100383.25;;;5.76;100.00
5679;BME280;2862;52.560;13.566;2023-02-03T06:42:25;100376.94;;;5.91;100.00
5679;BME280;2862;52.560;13.566;2023-02-03T06:52:29;100354.00;;;6.03;100.00
5679;BME280;2862;52.560;13.566;2023-02-03T07:02:33;100341.75;;;6.13;100.00
5679;BME280;2862;52.560;13.566;2023-02-03T07:12:36;100305.03;;;6.20;100.00
5679;BME280;2862;52.560;13.566;2023-02-03T07:22:40;100297.22;;;6.29;100.00
5679;BME280;2862;52.560;13.566;2023-02-03T07:32:48;100280.50;;;6.40;100.00
5679;BME280;2862;52.560;13.566;2023-02-03T07:42:53;100249.47;;;6.64;100.00
5679;BME280;2862;52.560;13.566;2023-02-03T07:52:56;100222.81;;;7.12;100.00
5679;BME280;2862;52.560;13.566;2023-02-03T08:03:00;100223.91;;;6.75;100.00
5679;BME280;2862;52.560;13.566;2023-02-03T08:13:02;100195.88;;;6.71;100.00
5679;BME280;2862;52.560;13.566;2023-02-03T08:23:07;100179.72;;;6.74;100.00
5679;BME280;2862;52.560;13.566;2023-02-03T08:33:10;100162.22;;;6.71;100.00
5679;BME280;2862;52.560;13.566;2023-02-03T08:43:14;100144.47;;;6.72;100.00
5679;BME280;2862;52.560;13.566;2023-02-03T08:53:16;100118.75;;;6.72;100.00
5679;BME280;2862;52.560;13.566;2023-02-03T09:03:20;100110.03;;;6.81;100.00
5679;BME280;2862;52.560;13.566;2023-02-03T09:13:24;100084.56;;;6.79;100.00
5679;BME280;2862;52.560;13.566;2023-02-03T09:23:28;100065.25;;;6.88;100.00
5679;BME280;2862;52.560;13.566;2023-02-03T09:33:32;100063.06;;;6.93;100.00
5679;BME280;2862;52.560;13.566;2023-02-03T09:43:40;100039.03;;;7.06;100.00
5679;BME280;2862;52.560;13.566;2023-02-03T09:53:51;100029.00;;;7.09;100.00
5679;BME280;2862;52.560;13.566;2023-02-03T10:04:03;99997.06;;;7.21;100.00
5679;BME280;2862;52.560;13.566;2023-02-03T10:14:24;99966.13;;;7.31;100.00
5679;BME280;2862;52.560;13.566;2023-02-03T10:24:38;99963.09;;;7.35;100.00
5679;BME280;2862;52.560;13.566;2023-02-03T10:34:43;99987.88;;;7.36;100.00
5679;BME280;2862;52.560;13.566;2023-02-03T10:44:52;100068.34;;;7.38;100.00
5679;BME280;2862;52.560;13.566;2023-02-03T10:55:04;100065.50;;;7.07;100.00
5679;BME280;2862;52.560;13.566;2023-02-03T11:05:18;100041.91;;;7.25;100.00
5679;BME280;2862;52.560;13.566;2023-02-03T11:15:22;100029.97;;;7.08;100.00
5679;BME280;2862;52.560;13.566;2023-02-03T11:25:31;100033.78;;;7.38;100.00
5679;BME280;2862;52.560;13.566;2023-02-03T11:35:35;100039.72;;;7.41;100.00
5679;BME280;2862;52.560;13.566;2023-02-03T11:45:41;100031.97;;;7.38;99.63
5679;BME280;2862;52.560;13.566;2023-02-03T11:55:53;100024.56;;;7.53;96.97
5679;BME280;2862;52.560;13.566;2023-02-03T12:06:19;100022.28;;;7.81;95.48
5679;BME280;2862;52.560;13.566;2023-02-03T12:16:41;100033.41;;;8.39;92.53
5679;BME280;2862;52.560;13.566;2023-02-03T12:27:00;100063.06;;;8.34;86.65
5679;BME280;2862;52.560;13.566;2023-02-03T12:37:11;100054.44;;;8.63;87.45
5679;BME280;2862;52.560;13.566;2023-02-03T12:47:21;100045.38;;;8.33;87.71
5679;BME280;2862;52.560;13.566;2023-02-03T12:57:29;100189.88;;;5.09;96.09
5679;BME280;2862;52.560;13.566;2023-02-03T13:07:39;100165.88;;;4.47;100.00
5679;BME280;2862;52.560;13.566;2023-02-03T13:17:49;100154.16;;;5.27;100.00
5679;BME280;2862;52.560;13.566;2023-02-03T13:28:08;100172.97;;;5.61;100.00
5679;BME280;2862;52.560;13.566;2023-02-03T13:38:42;100144.56;;;5.63;100.00
5679;BME280;2862;52.560;13.566;2023-02-03T13:48:55;100153.59;;;6.21;99.88
5679;BME280;2862;52.560;13.566;2023-02-03T13:59:04;100138.72;;;6.43;95.37
5679;BME280;2862;52.560;13.566;2023-02-03T14:09:20;100143.97;;;6.31;93.84
5679;BME280;2862;52.560;13.566;2023-02-03T14:19:54;100160.47;;;6.59;95.03
5679;BME280;2862;52.560;13.566;2023-02-03T14:30:06;100148.47;;;6.77;94.05
5679;BME280;2862;52.560;13.566;2023-02-03T14:40:36;100155.00;;;6.96;91.40
5679;BME280;2862;52.560;13.566;2023-02-03T14:50:54;100162.25;;;6.93;91.63
5679;BME280;2862;52.560;13.566;2023-02-03T15:01:02;100165.00;;;6.81;90.63
5679;BME280;2862;52.560;13.566;2023-02-03T15:11:41;100174.09;;;6.89;90.34
5679;BME280;2862;52.560;13.566;2023-02-03T15:21:45;100238.19;;;6.74;95.67
5679;BME280;2862;52.560;13.566;2023-02-03T15:31:52;100229.81;;;6.19;100.00
5679;BME280;2862;52.560;13.566;2023-02-03T15:41:58;100238.34;;;6.11;100.00
5679;BME280;2862;52.560;13.566;2023-02-03T15:52:08;100236.72;;;6.22;99.75
5679;BME280;2862;52.560;13.566;2023-02-03T16:02:16;100258.34;;;6.28;99.00
5679;BME280;2862;52.560;13.566;2023-02-03T16:12:24;100278.53;;;6.31;98.25
5679;BME280;2862;52.560;13.566;2023-02-03T16:22:29;100274.09;;;6.31;98.53
5679;BME280;2862;52.560;13.566;2023-02-03T16:32:34;100291.47;;;6.35;98.05
5679;BME280;2862;52.560;13.566;2023-02-03T16:42:54;100300.28;;;6.36;96.75
5679;BME280;2862;52.560;13.566;2023-02-03T16:53:18;100291.25;;;6.38;96.47
5679;BME280;2862;52.560;13.566;2023-02-03T17:03:23;100309.38;;;6.45;95.22
5679;BME280;2862;52.560;13.566;2023-02-03T17:13:29;100299.09;;;6.40;96.08
5679;BME280;2862;52.560;13.566;2023-02-03T17:23:31;100314.19;;;6.39;96.15
5679;BME280;2862;52.560;13.566;2023-02-03T17:33:35;100329.78;;;6.44;94.53
5679;BME280;2862;52.560;13.566;2023-02-03T17:43:39;100340.19;;;6.47;93.82
5679;BME280;2862;52.560;13.566;2023-02-03T17:54:01;100355.66;;;6.53;91.96
5679;BME280;2862;52.560;13.566;2023-02-03T18:04:07;100367.91;;;6.56;91.09
5679;BME280;2862;52.560;13.566;2023-02-03T18:14:13;100365.97;;;6.58;91.86
5679;BME280;2862;52.560;13.566;2023-02-03T18:24:17;100359.19;;;6.54;91.53
5679;BME280;2862;52.560;13.566;2023-02-03T18:34:24;100347.88;;;6.63;91.14
5679;BME280;2862;52.560;13.566;2023-02-03T18:44:27;100360.66;;;6.58;91.70
5679;BME280;2862;52.560;13.566;2023-02-03T18:54:34;100374.16;;;6.55;91.34
5679;BME280;2862;52.560;13.566;2023-02-03T19:04:37;100398.59;;;6.60;92.04
5679;BME280;2862;52.560;13.566;2023-02-03T19:14:42;100394.44;;;6.56;92.73
5679;BME280;2862;52.560;13.566;2023-02-03T19:24:45;100401.69;;;6.41;96.28
5679;BME280;2862;52.560;13.566;2023-02-03T19:34:49;100408.28;;;6.35;97.04
5679;BME280;2862;52.560;13.566;2023-02-03T19:44:52;100424.47;;;6.32;98.81
5679;BME280;2862;52.560;13.566;2023-02-03T19:54:58;100442.50;;;6.27;98.40
5679;BME280;2862;52.560;13.566;2023-02-03T20:05:01;100451.22;;;6.29;99.03
5679;BME280;2862;52.560;13.566;2023-02-03T20:15:06;100461.22;;;6.26;100.00
5679;BME280;2862;52.560;13.566;2023-02-03T20:25:09;100485.00;;;6.15;100.00
5679;BME280;2862;52.560;13.566;2023-02-03T20:35:20;100503.34;;;6.05;100.00
5679;BME280;2862;52.560;13.566;2023-02-03T20:45:38;100505.03;;;6.06;100.00
5679;BME280;2862;52.560;13.566;2023-02-03T20:55:47;100543.88;;;5.94;100.00
5679;BME280;2862;52.560;13.566;2023-02-03T21:05:50;100553.13;;;5.74;100.00
5679;BME280;2862;52.560;13.566;2023-02-03T21:15:59;100627.50;;;5.17;100.00
5679;BME280;2862;52.560;13.566;2023-02-03T21:26:14;100694.78;;;4.56;95.30
5679;BME280;2862;52.560;13.566;2023-02-03T21:36:21;100745.72;;;4.30;94.79
5679;BME280;2862;52.560;13.566;2023-02-03T21:46:27;100778.53;;;4.11;92.82
5679;BME280;2862;52.560;13.566;2023-02-03T21:56:37;100805.00;;;4.11;95.13
5679;BME280;2862;52.560;13.566;2023-02-03T22:06:42;100856.69;;;4.01;95.72
5679;BME280;2862;52.560;13.566;2023-02-03T22:16:47;100871.38;;;3.91;96.57
5679;BME280;2862;52.560;13.566;2023-02-03T22:26:51;100902.50;;;3.86;96.58
5679;BME280;2862;52.560;13.566;2023-02-03T22:36:57;100942.78;;;3.91;95.74
5679;BME280;2862;52.560;13.566;2023-02-03T22:46:59;100968.72;;;3.84;94.77
5679;BME280;2862;52.560;13.566;2023-02-03T22:57:06;101037.91;;;3.75;95.92
5679;BME280;2862;52.560;13.566;2023-02-03T23:07:11;101077.94;;;3.50;98.14
5679;BME280;2862;52.560;13.566;2023-02-03T23:17:15;101107.53;;;3.39;98.69
5679;BME280;2862;52.560;13.566;2023-02-03T23:27:18;101148.88;;;3.40;100.00
5679;BME280;2862;52.560;13.566;2023-02-03T23:37:22;101204.50;;;3.18;100.00
5679;BME280;2862;52.560;13.566;2023-02-03T23:47:25;101234.34;;;3.20;99.10
5679;BME280;2862;52.560;13.566;2023-02-03T23:57:30;101268.38;;;3.28;97.74
